Time;durP1;ratioP1;P1;durP2;ratioP2;P2;SDS_P1;SDS_P2;PMS_P1;PMS_P2;Temp;Humidity;BMP_temperature;BMP_pressure;BME280_temperature;BME280_humidity;BME280_pressure;Samples;Min_cycle;Max_cycle;Signal;HPM_P1;HPM_P2
2023/10/29 00:02:16;;;;;;;2.35;1.13;;;;;;;15.36;65.22;95606.50;4886111;28;20182;-79
2023/10/29 00:04:42;;;;;;;5.20;1.00;;;;;;;15.40;65.21;95612.66;4892740;28;20339;-78
2023/10/29 00:07:09;;;;;;;2.13;1.00;;;;;;;15.38;65.11;95603.59;4908692;28;20232;-78
2023/10/29 00:09:34;;;;;;;1.10;1.00;;;;;;;15.38;65.52;95608.81;4908834;28;20208;-79
2023/10/29 00:12:00;;;;;;;1.33;0.90;;;;;;;15.31;65.30;95601.44;4898999;28;20141;-79
2023/10/29 00:14:25;;;;;;;2.97;1.20;;;;;;;15.35;65.08;95607.59;4919849;28;20303;-78
2023/10/29 00:16:51;;;;;;;2.05;0.90;;;;;;;15.36;65.19;95609.91;4919267;28;20259;-78
2023/10/29 00:19:16;;;;;;;2.67;1.30;;;;;;;15.46;64.95;95613.28;4914788;28;20211;-78
2023/10/29 00:21:42;;;;;;;1.30;1.20;;;;;;;15.36;65.88;95604.66;4913504;28;20189;-79
2023/10/29 00:24:08;;;;;;;1.85;0.90;;;;;;;15.34;65.42;95598.19;4923001;28;20290;-79
2023/10/29 00:26:34;;;;;;;2.97;1.02;;;;;;;15.54;65.02;95594.88;4892212;28;20589;-79
2023/10/29 00:29:00;;;;;;;2.35;0.80;;;;;;;15.45;65.17;95591.50;4910660;28;20194;-79
2023/10/29 00:31:25;;;;;;;1.65;1.00;;;;;;;15.42;64.90;95586.13;4911352;28;20183;-79
2023/10/29 00:33:51;;;;;;;2.08;0.88;;;;;;;15.55;64.38;95593.78;4895452;28;20654;-78
2023/10/29 00:36:16;;;;;;;3.65;1.30;;;;;;;15.50;64.69;95604.44;4908356;28;20259;-79
2023/10/29 00:38:42;;;;;;;2.45;0.95;;;;;;;15.57;64.29;95614.47;4927044;28;20208;-78
2023/10/29 00:41:07;;;;;;;2.05;0.80;;;;;;;15.43;64.93;95619.16;4909386;28;20251;-79
2023/10/29 00:43:42;;;;;;;2.53;1.05;;;;;;;15.51;65.09;95615.72;4911583;28;20639;-79
2023/10/29 00:46:08;;;;;;;;;;;;;;;15.72;64.18;95634.16;4911706;28;20259;-79
2023/10/29 00:48:33;;;;;;;2.13;1.00;;;;;;;15.59;64.83;95637.75;4893140;28;20244;-78
2023/10/29 00:50:59;;;;;;;1.10;0.95;;;;;;;15.61;64.41;95614.59;4892474;28;20646;-79
2023/10/29 00:53:24;;;;;;;1.05;0.80;;;;;;;15.50;64.82;95612.31;4886734;28;20588;-78
2023/10/29 00:55:50;;;;;;;1.98;1.35;;;;;;;15.46;65.16;95597.53;4910315;28;20278;-78
2023/10/29 00:58:16;;;;;;;2.17;1.55;;;;;;;15.52;65.01;95602.31;4910408;28;20186;-79
2023/10/29 01:00:42;;;;;;;2.38;1.10;;;;;;;15.39;65.03;95602.47;4926583;28;20248;-79
2023/10/29 01:03:07;;;;;;;2.97;1.27;;;;;;;15.45;64.98;95602.00;4909105;28;20796;-79
2023/10/29 01:05:33;;;;;;;1.73;1.17;;;;;;;15.50;64.71;95595.81;4910051;28;20676;-79
2023/10/29 01:07:59;;;;;;;1.30;0.80;;;;;;;15.41;65.02;95579.34;4893836;28;20212;-79
2023/10/29 01:10:24;;;;;;;1.10;0.95;;;;;;;15.45;64.82;95581.00;4906714;28;20208;-79
2023/10/29 01:12:49;;;;;;;2.38;1.27;;;;;;;15.38;64.68;95578.13;4919205;28;20279;-77
2023/10/29 01:15:15;;;;;;;4.05;1.55;;;;;;;15.20;65.11;95560.91;4875263;28;20196;-78
2023/10/29 01:17:41;;;;;;;2.03;0.93;;;;;;;15.34;64.88;95561.47;4906864;28;20623;-80
2023/10/29 01:20:07;;;;;;;2.17;0.80;;;;;;;15.40;64.77;95557.59;4906242;28;20713;-80
2023/10/29 01:22:33;;;;;;;3.63;0.93;;;;;;;15.50;64.22;95557.22;4909126;28;20193;-80
2023/10/29 01:24:59;;;;;;;2.72;1.15;;;;;;;15.53;64.56;95555.84;4909387;28;20287;-80
2023/10/29 01:27:24;;;;;;;1.65;1.00;;;;;;;15.49;64.52;95539.97;4894018;28;20599;-80
2023/10/29 01:29:49;;;;;;;2.60;1.60;;;;;;;15.47;63.74;95541.38;4910290;28;20157;-78
2023/10/29 01:32:15;;;;;;;2.50;1.25;;;;;;;15.36;64.76;95540.94;4909879;28;20239;-80
2023/10/29 01:34:40;;;;;;;1.60;1.38;;;;;;;15.40;64.79;95535.84;4926303;28;20777;-79
2023/10/29 01:37:05;;;;;;;1.73;0.93;;;;;;;15.42;63.57;95534.47;4925586;28;20219;-81
2023/10/29 01:39:31;;;;;;;1.88;1.40;;;;;;;15.50;64.39;95525.75;4905533;28;20291;-79
2023/10/29 01:41:57;;;;;;;1.75;1.05;;;;;;;15.44;63.56;95508.69;4898303;28;20304;-80
2023/10/29 01:44:23;;;;;;;1.52;1.30;;;;;;;15.39;64.08;95508.84;4893401;28;20172;-80
2023/10/29 01:46:49;;;;;;;1.92;0.73;;;;;;;15.50;63.48;95523.13;4880023;28;20235;-79
2023/10/29 01:49:14;;;;;;;1.70;1.02;;;;;;;15.49;63.81;95521.63;4914720;28;20251;-80
2023/10/29 01:51:40;;;;;;;1.85;1.00;;;;;;;15.50;63.81;95510.03;4914684;28;20189;-80
2023/10/29 01:54:06;;;;;;;2.45;1.15;;;;;;;15.50;63.60;95507.41;4895709;28;20280;-79
2023/10/29 01:56:31;;;;;;;2.00;0.88;;;;;;;15.49;63.58;95534.72;4894518;28;20246;-80
2023/10/29 01:58:58;;;;;;;1.42;1.08;;;;;;;15.40;63.08;95518.25;4850326;28;1221291;-80
2023/10/29 02:01:23;;;;;;;2.85;1.10;;;;;;;15.56;63.02;95536.88;4923435;28;20267;-80
2023/10/29 02:03:49;;;;;;;2.05;1.33;;;;;;;15.60;62.75;95545.63;4902889;28;20275;-80
2023/10/29 02:06:17;;;;;;;2.42;0.90;;;;;;;15.67;63.35;95545.91;4918687;28;20207;-80
2023/10/29 02:08:43;;;;;;;1.55;0.80;;;;;;;15.54;62.82;95552.91;4891971;28;20258;-80
2023/10/29 02:11:08;;;;;;;2.03;0.95;;;;;;;15.60;63.16;95539.63;4892424;28;20299;-79
2023/10/29 02:13:34;;;;;;;1.60;1.02;;;;;;;15.54;63.79;95545.03;4907541;28;20216;-80
2023/10/29 02:16:00;;;;;;;1.00;0.75;;;;;;;15.60;62.95;95547.50;4903668;28;20173;-80
2023/10/29 02:18:25;;;;;;;3.00;1.25;;;;;;;15.61;62.92;95541.13;4919831;28;20097;-79
2023/10/29 02:20:50;;;;;;;3.42;1.05;;;;;;;15.53;63.42;95545.34;4926028;28;20340;-78
2023/10/29 02:23:16;;;;;;;1.00;0.70;;;;;;;15.54;62.75;95542.41;4909169;28;20213;-79
2023/10/29 02:25:41;;;;;;;1.08;0.63;;;;;;;15.59;63.07;95549.31;4909653;28;20192;-79
2023/10/29 02:28:07;;;;;;;1.30;0.90;;;;;;;15.49;62.91;95533.94;4910192;28;20715;-79
2023/10/29 02:30:32;;;;;;;2.63;0.90;;;;;;;15.43;63.07;95543.09;4909476;28;20283;-78
2023/10/29 02:32:58;;;;;;;1.63;0.70;;;;;;;15.56;62.41;95549.97;4909939;28;20249;-79
2023/10/29 02:35:23;;;;;;;1.55;1.00;;;;;;;15.61;62.55;95543.75;4907065;28;20361;-78
2023/10/29 02:37:48;;;;;;;1.48;0.88;;;;;;;15.62;62.24;95542.69;4924340;28;20313;-79
2023/10/29 02:40:14;;;;;;;1.30;0.95;;;;;;;15.53;62.71;95542.75;4909298;28;20109;-78
2023/10/29 02:42:39;;;;;;;2.15;0.77;;;;;;;15.64;62.15;95543.91;4909952;28;20618;-78
2023/10/29 02:45:05;;;;;;;1.73;0.70;;;;;;;15.68;61.90;95530.94;4917101;28;20291;-79
2023/10/29 02:47:31;;;;;;;2.05;0.90;;;;;;;15.62;62.56;95534.81;4906694;28;20192;-79
2023/10/29 02:49:56;;;;;;;1.15;0.70;;;;;;;15.69;62.30;95533.22;4906921;28;20710;-79
2023/10/29 02:52:22;;;;;;;3.15;1.17;;;;;;;15.73;61.95;95549.13;4889353;28;20646;-79
2023/10/29 02:54:48;;;;;;;1.20;1.00;;;;;;;15.62;61.75;95532.19;4907908;28;20243;-79
2023/10/29 02:57:13;;;;;;;1.10;0.90;;;;;;;15.74;61.65;95550.66;4892681;28;20172;-78
2023/10/29 02:59:39;;;;;;;1.13;0.80;;;;;;;15.60;61.66;95552.75;4906206;28;20682;-79
2023/10/29 03:02:30;;;;;;;2.03;0.90;;;;;;;15.48;61.96;95548.16;4903962;28;20283;-79
2023/10/29 03:04:55;;;;;;;2.45;1.00;;;;;;;15.63;61.82;95555.50;4889103;28;20738;-79
2023/10/29 03:07:20;;;;;;;2.22;1.05;;;;;;;15.66;61.95;95559.31;4909417;28;20199;-79
2023/10/29 03:09:46;;;;;;;1.70;1.00;;;;;;;15.60;61.86;95557.97;4908595;28;20195;-79
2023/10/29 03:12:12;;;;;;;3.80;1.45;;;;;;;15.63;61.63;95554.72;4907514;28;20311;-78
2023/10/29 03:14:37;;;;;;;2.83;1.25;;;;;;;15.61;61.15;95551.63;4909544;28;20645;-79
2023/10/29 03:17:03;;;;;;;2.17;0.85;;;;;;;15.69;61.39;95553.44;4908750;28;20213;-79
2023/10/29 03:19:28;;;;;;;1.48;0.70;;;;;;;15.61;62.18;95560.28;4909237;28;20200;-79
2023/10/29 03:21:53;;;;;;;2.40;0.80;;;;;;;15.67;61.64;95566.88;4890597;28;20361;-77
2023/10/29 03:24:19;;;;;;;0.90;0.70;;;;;;;15.63;61.37;95570.47;4925246;28;20231;-78
2023/10/29 03:26:44;;;;;;;1.92;0.98;;;;;;;15.73;62.13;95570.13;4925291;28;20219;-78
2023/10/29 03:29:09;;;;;;;2.00;0.80;;;;;;;15.75;62.28;95557.47;4907084;28;20184;-78
2023/10/29 03:31:35;;;;;;;1.08;0.80;;;;;;;15.79;62.04;95558.38;4920246;28;20208;-78
2023/10/29 03:34:00;;;;;;;1.15;0.73;;;;;;;15.78;62.39;95551.59;4909008;28;20794;-78
2023/10/29 03:36:25;;;;;;;2.05;0.90;;;;;;;15.67;62.90;95553.00;4908727;28;20192;-79
2023/10/29 03:38:51;;;;;;;1.45;1.00;;;;;;;15.72;61.91;95555.44;4911714;28;20203;-79
2023/10/29 03:41:21;;;;;;;1.48;0.77;;;;;;;15.82;62.12;95552.50;4911538;28;20646;-78
2023/10/29 03:43:47;;;;;;;2.38;1.30;;;;;;;15.75;61.57;95546.97;4912738;28;20657;-78
2023/10/29 03:46:12;;;;;;;2.45;0.75;;;;;;;15.78;61.59;95563.94;4930345;28;20222;-78
2023/10/29 03:48:42;;;;;;;1.85;1.25;;;;;;;15.70;61.78;95560.25;4927565;28;20180;-78
2023/10/29 03:51:07;;;;;;;1.17;0.90;;;;;;;15.72;61.36;95553.59;4920220;28;20211;-78
2023/10/29 03:53:33;;;;;;;1.35;0.90;;;;;;;15.67;62.33;95560.88;4909222;28;20223;-78
2023/10/29 03:56:00;;;;;;;1.30;0.88;;;;;;;15.81;62.01;95565.94;4918641;28;20204;-79
2023/10/29 03:58:26;;;;;;;2.65;1.05;;;;;;;15.73;61.71;95552.50;4893390;28;20205;-78
2023/10/29 04:00:51;;;;;;;3.95;1.30;;;;;;;15.78;62.25;95554.22;4909836;28;20608;-78
2023/10/29 04:03:17;;;;;;;3.67;1.00;;;;;;;15.48;64.12;95559.41;4927962;28;20642;-78
2023/10/29 04:05:42;;;;;;;2.63;1.35;;;;;;;15.73;63.21;95559.63;4908628;28;20638;-78
2023/10/29 04:08:08;;;;;;;4.45;0.90;;;;;;;15.76;63.28;95561.63;4923833;28;20321;-78
2023/10/29 04:10:34;;;;;;;3.05;1.17;;;;;;;15.83;63.48;95569.75;4927712;28;20183;-79
2023/10/29 04:12:59;;;;;;;1.40;1.00;;;;;;;15.90;63.40;95588.41;4895951;28;20189;-78
2023/10/29 04:15:25;;;;;;;2.83;1.08;;;;;;;15.95;63.67;95591.94;4895140;28;20196;-78
2023/10/29 04:17:50;;;;;;;1.00;0.90;;;;;;;15.67;64.76;95581.88;4928278;28;20662;-78
2023/10/29 04:20:16;;;;;;;1.73;1.00;;;;;;;15.72;64.80;95577.19;4928320;28;20268;-79
2023/10/29 04:22:42;;;;;;;2.28;1.10;;;;;;;15.78;64.47;95583.09;4928102;28;20193;-79
2023/10/29 04:25:08;;;;;;;1.90;1.33;;;;;;;15.74;65.33;95580.28;4911863;28;20203;-79
2023/10/29 04:27:33;;;;;;;1.27;1.05;;;;;;;15.75;65.59;95581.09;4893738;28;20119;-79
2023/10/29 04:29:59;;;;;;;2.40;1.83;;;;;;;15.76;65.84;95582.59;4919814;28;20180;-79
2023/10/29 04:32:24;;;;;;;1.63;1.27;;;;;;;15.71;65.67;95574.88;4908716;28;20282;-79
2023/10/29 04:34:49;;;;;;;1.90;1.50;;;;;;;15.78;65.63;95574.44;4892333;28;20649;-78
2023/10/29 04:37:15;;;;;;;2.75;1.38;;;;;;;15.71;66.22;95577.50;4892605;28;20396;-79
2023/10/29 04:39:42;;;;;;;2.28;1.20;;;;;;;15.68;66.46;95575.53;4877142;28;20291;-78
2023/10/29 04:42:08;;;;;;;2.30;1.17;;;;;;;15.73;66.81;95575.38;4908890;28;20630;-79
2023/10/29 04:44:33;;;;;;;1.77;1.27;;;;;;;15.70;66.46;95576.00;4911744;28;20236;-78
2023/10/29 04:46:59;;;;;;;2.15;1.35;;;;;;;15.81;66.22;95571.19;4913680;28;20288;-79
2023/10/29 04:49:26;;;;;;;2.28;1.10;;;;;;;15.74;66.18;95564.53;4926652;28;20204;-80
2023/10/29 04:51:51;;;;;;;1.92;1.20;;;;;;;15.79;66.60;95578.59;4906037;28;20172;-80
2023/10/29 04:54:17;;;;;;;2.95;1.40;;;;;;;15.72;66.83;95574.56;4895595;28;20259;-78
2023/10/29 04:56:42;;;;;;;2.67;1.27;;;;;;;15.64;66.57;95578.00;4908424;28;20700;-80
2023/10/29 04:59:07;;;;;;;1.60;1.40;;;;;;;15.85;66.60;95587.81;4892415;28;20234;-80
2023/10/29 05:01:33;;;;;;;2.83;1.50;;;;;;;15.85;66.54;95593.06;4909864;28;20271;-79
2023/10/29 05:03:58;;;;;;;2.47;1.27;;;;;;;15.89;66.06;95583.50;4904086;28;20421;-80
2023/10/29 05:06:23;;;;;;;1.55;1.20;;;;;;;15.87;66.44;95596.91;4911452;28;20199;-80
2023/10/29 05:08:52;;;;;;;1.40;1.10;;;;;;;15.84;66.74;95596.78;4921846;28;20203;-80
2023/10/29 05:11:17;;;;;;;1.85;1.42;;;;;;;15.83;67.06;95590.75;4910989;28;20199;-80
2023/10/29 05:13:43;;;;;;;3.10;2.03;;;;;;;15.74;67.57;95592.63;4895987;28;20294;-80
2023/10/29 05:16:08;;;;;;;2.63;1.60;;;;;;;15.86;66.79;95578.88;4929345;28;20303;-81
2023/10/29 05:18:34;;;;;;;2.45;1.38;;;;;;;15.69;67.94;95582.31;4927744;28;20364;-79
2023/10/29 05:20:59;;;;;;;4.45;1.10;;;;;;;15.79;67.85;95568.09;4890667;28;20821;-80
2023/10/29 05:23:26;;;;;;;3.60;1.90;;;;;;;15.87;67.44;95578.56;4894751;28;20156;-80
2023/10/29 05:25:52;;;;;;;4.50;1.45;;;;;;;15.95;67.07;95586.69;4892147;28;20689;-79
2023/10/29 05:28:18;;;;;;;4.72;1.60;;;;;;;15.91;67.34;95603.06;4908063;28;20192;-80
2023/10/29 05:30:43;;;;;;;3.25;1.55;;;;;;;15.98;67.27;95604.44;4923840;28;20203;-80
2023/10/29 05:33:08;;;;;;;2.85;1.45;;;;;;;15.93;67.66;95605.38;4909071;28;20628;-79
2023/10/29 05:35:34;;;;;;;3.00;1.60;;;;;;;15.62;69.49;95593.28;4894727;28;20275;-80
2023/10/29 05:37:59;;;;;;;3.83;1.50;;;;;;;15.95;67.99;95584.81;4895749;28;20212;-80
2023/10/29 05:40:25;;;;;;;3.63;1.58;;;;;;;15.94;67.31;95609.56;4907739;28;20228;-80
2023/10/29 05:42:50;;;;;;;3.22;1.52;;;;;;;15.96;67.51;95614.50;4929277;28;20271;-80
2023/10/29 05:45:16;;;;;;;3.60;1.50;;;;;;;15.96;67.87;95617.88;4911064;28;20265;-80
2023/10/29 05:47:41;;;;;;;1.73;1.40;;;;;;;15.98;67.09;95607.81;4891982;28;20107;-79
2023/10/29 05:50:07;;;;;;;3.00;1.67;;;;;;;15.98;67.66;95612.31;4892719;28;20710;-80
2023/10/29 05:52:33;;;;;;;4.43;1.60;;;;;;;16.03;67.86;95626.00;4908043;28;20182;-79
2023/10/29 05:55:02;;;;;;;2.35;1.67;;;;;;;15.99;68.33;95640.88;4907829;28;20356;-80
2023/10/29 05:57:28;;;;;;;3.33;1.70;;;;;;;16.01;67.90;95641.31;4889823;28;20157;-80
2023/10/29 05:59:53;;;;;;;2.90;1.80;;;;;;;15.89;68.20;95642.00;4893149;28;20216;-80
2023/10/29 06:02:19;;;;;;;5.43;2.55;;;;;;;15.98;67.83;95649.81;4908718;28;20203;-80
2023/10/29 06:04:44;;;;;;;3.95;1.70;;;;;;;15.95;68.01;95641.81;4909508;28;20386;-80
2023/10/29 06:07:10;;;;;;;2.28;1.60;;;;;;;15.95;68.46;95654.94;4902866;28;20218;-80
2023/10/29 06:09:35;;;;;;;4.63;1.90;;;;;;;15.86;68.54;95650.50;4896781;28;20240;-81
2023/10/29 06:12:01;;;;;;;2.42;1.70;;;;;;;16.01;67.93;95654.44;4897905;28;20195;-80
2023/10/29 06:14:26;;;;;;;3.10;1.58;;;;;;;15.93;68.58;95651.88;4893344;28;20273;-81
2023/10/29 06:16:56;;;;;;;4.97;2.10;;;;;;;15.99;68.79;95640.09;4909881;28;20337;-83
2023/10/29 06:19:24;;;;;;;2.20;2.00;;;;;;;16.08;68.34;95648.69;4909688;28;20676;-81
2023/10/29 06:21:50;;;;;;;4.80;2.30;;;;;;;16.04;68.48;95648.56;4906333;28;20192;-81
2023/10/29 06:24:16;;;;;;;2.72;1.98;;;;;;;16.06;68.40;95645.63;4908140;28;20801;-81
2023/10/29 06:26:41;;;;;;;3.28;1.90;;;;;;;16.09;68.44;95629.22;4903837;28;20256;-82
2023/10/29 06:29:08;;;;;;;3.28;1.85;;;;;;;16.16;67.74;95608.50;4904853;28;20282;-81
2023/10/29 06:31:34;;;;;;;3.45;2.03;;;;;;;15.89;68.86;95620.22;4908700;28;20194;-81
2023/10/29 06:34:00;;;;;;;4.05;2.10;;;;;;;16.05;68.02;95629.09;4896056;28;20223;-81
2023/10/29 06:36:25;;;;;;;1.90;1.80;;;;;;;16.14;68.27;95605.41;4922116;28;20248;-81
2023/10/29 06:38:50;;;;;;;4.22;1.90;;;;;;;16.18;68.66;95613.44;4906120;28;20110;-81
2023/10/29 06:41:16;;;;;;;2.63;1.98;;;;;;;16.14;68.45;95623.03;4889540;28;20209;-81
2023/10/29 06:43:41;;;;;;;3.28;2.00;;;;;;;16.25;68.07;95626.84;4902300;28;20207;-81
2023/10/29 06:46:06;;;;;;;3.28;1.70;;;;;;;16.28;67.95;95621.72;4888960;28;20207;-81
2023/10/29 06:48:32;;;;;;;2.00;1.80;;;;;;;16.28;67.68;95613.06;4903185;28;20268;-81
2023/10/29 06:50:57;;;;;;;3.38;1.60;;;;;;;16.13;68.27;95619.63;4924812;28;20172;-81
2023/10/29 06:53:22;;;;;;;3.05;1.60;;;;;;;16.12;68.59;95638.34;4909863;28;20199;-81
2023/10/29 06:55:48;;;;;;;1.88;1.63;;;;;;;16.15;68.63;95632.44;4926569;28;20615;-81
2023/10/29 06:58:13;;;;;;;3.17;1.75;;;;;;;16.14;68.38;95618.53;4909697;28;20268;-82
2023/10/29 07:00:39;;;;;;;2.60;1.75;;;;;;;16.02;69.09;95623.72;4915664;28;20357;-79
2023/10/29 07:03:07;;;;;;;3.58;1.58;;;;;;;15.83;69.33;95617.00;4908505;28;20210;-80
2023/10/29 07:05:33;;;;;;;3.22;1.63;;;;;;;16.06;69.07;95637.75;4906439;28;20243;-80
2023/10/29 07:08:00;;;;;;;3.67;1.90;;;;;;;16.29;68.11;95644.25;4922892;28;20278;-81
2023/10/29 07:10:26;;;;;;;2.70;1.63;;;;;;;16.08;69.24;95643.44;4915912;28;20674;-82
2023/10/29 07:12:53;;;;;;;3.15;1.67;;;;;;;16.12;69.31;95641.72;4891541;28;20207;-81
2023/10/29 07:15:19;;;;;;;3.78;1.90;;;;;;;16.18;69.35;95642.31;4925137;28;20165;-82
2023/10/29 07:17:44;;;;;;;2.35;1.90;;;;;;;16.29;68.71;95632.97;4894487;28;20207;-82
2023/10/29 07:20:11;;;;;;;2.22;1.60;;;;;;;16.35;68.65;95644.06;4911911;28;20651;-81
2023/10/29 07:22:36;;;;;;;2.70;1.90;;;;;;;16.34;68.61;95643.28;4914273;28;20368;-81
2023/10/29 07:25:03;;;;;;;3.10;1.65;;;;;;;16.38;68.55;95638.16;4897383;28;20275;-81
2023/10/29 07:27:29;;;;;;;2.78;1.75;;;;;;;16.44;68.37;95634.28;4923162;28;20199;-82
2023/10/29 07:29:54;;;;;;;3.72;1.42;;;;;;;16.27;68.87;95625.41;4898353;28;20172;-81
2023/10/29 07:32:19;;;;;;;2.22;1.67;;;;;;;16.19;69.42;95612.34;4910646;28;20312;-81
2023/10/29 07:34:45;;;;;;;3.85;1.75;;;;;;;16.31;68.91;95619.53;4914267;28;20230;-82
2023/10/29 07:37:12;;;;;;;5.85;1.58;;;;;;;16.37;69.13;95620.88;4929870;28;20215;-80
2023/10/29 07:39:37;;;;;;;2.28;1.77;;;;;;;16.39;68.64;95611.59;4913341;28;20175;-82
2023/10/29 07:42:03;;;;;;;3.17;1.83;;;;;;;16.33;69.17;95612.09;4913510;28;20168;-82
2023/10/29 07:44:28;;;;;;;3.67;1.70;;;;;;;16.25;69.16;95611.84;4910630;28;20188;-80
2023/10/29 07:46:54;;;;;;;2.13;1.70;;;;;;;16.39;68.79;95611.59;4895025;28;20643;-79
2023/10/29 07:49:20;;;;;;;3.65;1.83;;;;;;;16.37;68.84;95605.13;4886652;28;20181;-80
2023/10/29 07:51:48;;;;;;;2.42;1.30;;;;;;;16.46;68.29;95601.34;4894778;28;20539;-81
2023/10/29 07:54:13;;;;;;;2.50;1.60;;;;;;;16.43;68.79;95607.25;4912958;28;20629;-82
2023/10/29 07:56:39;;;;;;;1.95;1.58;;;;;;;16.34;68.21;95587.38;4912777;28;20207;-81
2023/10/29 07:59:04;;;;;;;2.45;1.55;;;;;;;16.38;68.72;95619.78;4928865;28;20650;-81
2023/10/29 08:01:30;;;;;;;4.43;2.00;;;;;;;16.28;68.00;95639.34;4904996;28;20203;-83
2023/10/29 08:03:57;;;;;;;2.22;1.88;;;;;;;16.35;68.68;95638.81;4913054;28;20286;-83
2023/10/29 08:06:22;;;;;;;3.47;1.70;;;;;;;16.58;67.76;95644.53;4897089;28;20211;-82
2023/10/29 08:08:48;;;;;;;2.10;1.48;;;;;;;16.43;67.91;95632.72;4893459;28;20576;-82
2023/10/29 08:11:18;;;;;;;2.55;1.40;;;;;;;15.93;69.84;95620.38;4912900;28;20273;-81
2023/10/29 08:13:44;;;;;;;2.58;1.52;;;;;;;16.03;69.88;95618.13;4911672;28;20152;-81
2023/10/29 08:16:09;;;;;;;6.97;2.20;;;;;;;15.90;70.33;95604.16;4912460;28;20181;-80
2023/10/29 08:18:34;;;;;;;2.45;1.70;;;;;;;16.13;70.01;95598.63;4912502;28;20289;-81
2023/10/29 08:21:00;;;;;;;1.88;1.65;;;;;;;16.33;68.63;95607.63;4929709;28;20176;-79
2023/10/29 08:23:26;;;;;;;2.63;1.83;;;;;;;16.14;68.78;95586.25;4912978;28;20268;-81
2023/10/29 08:25:52;;;;;;;1.75;1.60;;;;;;;16.29;69.07;95601.47;4897382;28;20293;-81
2023/10/29 08:28:19;;;;;;;1.77;1.30;;;;;;;16.40;68.42;95604.47;4893944;28;20211;-80
2023/10/29 08:30:59;;;;;;;2.63;1.40;;;;;;;16.17;68.74;95591.66;4903750;28;20177;-81
2023/10/29 08:33:26;;;;;;;3.05;1.45;;;;;;;16.44;68.48;95606.16;4912326;28;20195;-80
2023/10/29 08:35:51;;;;;;;2.00;1.35;;;;;;;16.41;68.38;95616.53;4893586;28;20292;-81
2023/10/29 08:38:17;;;;;;;1.63;1.10;;;;;;;16.35;68.45;95610.69;4921476;28;20287;-82
2023/10/29 08:40:42;;;;;;;3.75;1.40;;;;;;;16.42;68.46;95623.31;4929778;28;20203;-80
2023/10/29 08:43:07;;;;;;;1.88;1.23;;;;;;;16.39;68.22;95627.34;4897070;28;20290;-81
2023/10/29 08:45:36;;;;;;;1.50;1.38;;;;;;;16.44;68.44;95627.16;4929373;28;20203;-82
2023/10/29 08:48:01;;;;;;;3.13;1.60;;;;;;;16.53;68.49;95642.84;4896911;28;20218;-82
2023/10/29 08:50:28;;;;;;;2.53;1.77;;;;;;;16.63;67.92;95647.72;4899252;28;20862;-79
2023/10/29 08:52:54;;;;;;;2.13;1.92;;;;;;;16.57;68.62;95643.78;4928203;28;20234;-82
2023/10/29 08:55:19;;;;;;;1.38;1.27;;;;;;;16.38;68.61;95643.44;4919967;28;20734;-80
2023/10/29 08:57:44;;;;;;;2.15;1.77;;;;;;;16.44;68.49;95644.78;4908996;28;20373;-80
2023/10/29 09:00:10;;;;;;;1.92;1.50;;;;;;;16.41;68.47;95640.16;4902768;28;20218;-81
2023/10/29 09:02:36;;;;;;;2.45;1.50;;;;;;;16.54;68.01;95654.16;4909390;28;20174;-80
2023/10/29 09:05:02;;;;;;;3.17;1.45;;;;;;;16.51;67.25;95654.78;4892854;28;20330;-81
2023/10/29 09:07:27;;;;;;;1.40;1.08;;;;;;;16.50;67.92;95669.00;4918350;28;20184;-81
2023/10/29 09:09:53;;;;;;;2.08;1.10;;;;;;;16.54;67.54;95681.19;4925846;28;20268;-80
2023/10/29 09:12:19;;;;;;;1.98;1.00;;;;;;;16.40;68.56;95696.41;4910752;28;20199;-81
2023/10/29 09:14:45;;;;;;;1.70;1.60;;;;;;;16.31;68.25;95674.69;4912424;28;20244;-82
2023/10/29 09:17:11;;;;;;;1.45;1.20;;;;;;;16.22;68.55;95665.00;4896376;28;20649;-80
2023/10/29 09:19:36;;;;;;;1.85;1.20;;;;;;;16.48;67.81;95666.69;4930956;28;20250;-82
2023/10/29 09:22:02;;;;;;;1.77;1.55;;;;;;;16.47;68.16;95660.69;4896201;28;20198;-81
2023/10/29 09:24:27;;;;;;;2.10;1.90;;;;;;;16.52;67.73;95662.34;4911724;28;20172;-81
2023/10/29 09:26:53;;;;;;;2.28;1.73;;;;;;;16.41;68.05;95682.19;4910017;28;20239;-80
2023/10/29 09:29:19;;;;;;;4.20;1.40;;;;;;;16.48;67.95;95666.69;4895359;28;20166;-81
2023/10/29 09:31:44;;;;;;;2.95;2.13;;;;;;;16.60;67.98;95679.13;4918237;28;20211;-80
2023/10/29 09:34:10;;;;;;;1.50;1.40;;;;;;;16.67;67.30;95674.94;4923196;28;20600;-82
2023/10/29 09:36:35;;;;;;;2.35;1.00;;;;;;;16.58;67.93;95671.56;4895777;28;20286;-83
2023/10/29 09:39:01;;;;;;;1.65;1.38;;;;;;;16.53;68.13;95671.75;4910598;28;20322;-82
2023/10/29 09:41:26;;;;;;;2.67;1.20;;;;;;;16.52;67.84;95688.63;4922408;28;20678;-83
2023/10/29 09:43:53;;;;;;;2.45;1.27;;;;;;;16.45;68.33;95683.88;4923293;28;20578;-81
2023/10/29 09:46:20;;;;;;;1.58;0.85;;;;;;;16.58;68.10;95711.00;4904372;28;20694;-81
2023/10/29 09:48:46;;;;;;;1.05;0.98;;;;;;;16.64;67.27;95699.22;4906630;28;20666;-80
2023/10/29 09:51:12;;;;;;;1.70;1.10;;;;;;;16.65;67.83;95705.22;4926392;28;20211;-80
2023/10/29 09:53:37;;;;;;;1.75;1.00;;;;;;;16.56;68.25;95686.91;4916895;28;20181;-82
2023/10/29 09:56:06;;;;;;;1.35;0.88;;;;;;;16.75;67.78;95696.97;4924173;28;20314;-82
2023/10/29 09:58:32;;;;;;;0.80;0.80;;;;;;;16.68;67.58;95680.94;4908883;28;20211;-80
2023/10/29 10:00:58;;;;;;;1.45;0.95;;;;;;;16.67;67.64;95679.41;4897306;28;20166;-81
2023/10/29 10:03:26;;;;;;;1.08;0.93;;;;;;;16.75;67.03;95675.19;4907663;28;20310;-80
2023/10/29 10:05:52;;;;;;;0.88;0.80;;;;;;;16.67;67.76;95674.94;4912759;28;20299;-81
2023/10/29 10:08:28;;;;;;;2.25;0.88;;;;;;;16.73;67.57;95666.84;4908180;28;20144;-82
2023/10/29 10:10:53;;;;;;;1.05;0.60;;;;;;;16.60;67.40;95682.53;4919116;28;20788;-80
2023/10/29 10:13:35;;;;;;;1.02;0.82;;;;;;;16.67;67.44;95685.44;4923416;28;20317;-81
2023/10/29 10:16:08;;;;;;;1.55;0.80;;;;;;;16.77;67.19;95700.03;4903067;28;20649;-81
2023/10/29 10:18:55;;;;;;;2.58;0.73;;;;;;;16.73;67.56;95685.25;4911669;28;20288;-81
2023/10/29 10:21:23;;;;;;;1.42;0.80;;;;;;;16.52;67.51;95670.25;4905936;28;20657;-81
2023/10/29 10:23:55;;;;;;;4.05;0.82;;;;;;;16.57;67.59;95682.41;4917059;28;20699;-82
2023/10/29 10:26:28;;;;;;;1.55;0.73;;;;;;;16.71;67.51;95679.53;4904668;28;20250;-82
2023/10/29 10:28:54;;;;;;;0.65;0.55;;;;;;;16.62;67.89;95677.75;4925827;28;20287;-81
2023/10/29 10:31:20;;;;;;;2.55;1.00;;;;;;;16.60;67.47;95676.50;4908372;28;20199;-83
2023/10/29 10:33:45;;;;;;;1.08;0.65;;;;;;;16.59;67.27;95678.38;4907338;28;20230;-82
2023/10/29 10:36:11;;;;;;;0.63;0.50;;;;;;;16.58;67.41;95682.09;4894417;28;20629;-84
2023/10/29 10:38:51;;;;;;;0.80;0.70;;;;;;;16.70;67.28;95684.00;4926011;28;20242;-84
2023/10/29 10:41:16;;;;;;;1.20;0.60;;;;;;;16.53;67.79;95677.00;4915542;28;20268;-84
2023/10/29 10:43:42;;;;;;;0.80;0.43;;;;;;;16.58;67.62;95694.47;4921684;28;20458;-84
2023/10/29 10:46:07;;;;;;;0.93;0.60;;;;;;;16.45;67.96;95668.13;4893478;28;20216;-83
2023/10/29 10:48:34;;;;;;;1.23;0.50;;;;;;;16.57;67.58;95664.00;4919602;28;20211;-83
2023/10/29 10:51:01;;;;;;;0.73;0.40;;;;;;;16.47;67.73;95665.94;4892094;28;20290;-83
2023/10/29 10:53:26;;;;;;;1.90;0.30;;;;;;;16.48;67.92;95687.72;4911176;28;20209;-83
2023/10/29 10:55:53;;;;;;;0.68;0.60;;;;;;;16.48;67.78;95671.94;4911724;28;20338;-84
2023/10/29 10:58:19;;;;;;;1.10;0.30;;;;;;;16.42;67.69;95681.13;4891836;28;20540;-84
2023/10/29 11:00:45;;;;;;;0.68;0.40;;;;;;;16.29;67.76;95682.88;4919096;28;20571;-84
2023/10/29 11:03:10;;;;;;;1.20;0.40;;;;;;;16.36;67.83;95685.00;4890433;28;20243;-82
2023/10/29 11:05:36;;;;;;;0.40;0.40;;;;;;;16.38;68.08;95673.09;4907887;28;20650;-83
2023/10/29 11:08:02;;;;;;;0.40;0.30;;;;;;;16.35;67.96;95672.94;4927049;28;20649;-84
2023/10/29 11:10:27;;;;;;;0.30;0.30;;;;;;;16.43;67.82;95686.06;4892543;28;20170;-83
2023/10/29 11:12:53;;;;;;;0.40;0.40;;;;;;;16.42;67.93;95673.25;4898899;28;20382;-83
2023/10/29 11:15:21;;;;;;;0.52;0.50;;;;;;;16.40;67.59;95670.94;4878335;28;20278;-83
2023/10/29 11:17:56;;;;;;;0.60;0.50;;;;;;;16.47;68.08;95665.16;4892076;28;20185;-85
2023/10/29 11:20:36;;;;;;;;;;;;;;;16.60;67.49;95666.75;4917728;28;20223;-84
2023/10/29 11:23:09;;;;;;;1.25;0.40;;;;;;;16.48;67.53;95656.19;4920116;28;20607;-84
2023/10/29 11:25:36;;;;;;;0.40;0.40;;;;;;;16.42;67.84;95652.97;4920330;28;20117;-84
2023/10/29 11:28:01;;;;;;;0.35;0.35;;;;;;;16.39;68.04;95653.63;4903000;28;20267;-84
2023/10/29 11:30:28;;;;;;;0.55;0.30;;;;;;;16.38;67.84;95656.56;4903056;28;20299;-83